sensor_id;sensor_type;location;lat;lon;timestamp;temperature;humidity
36212;DHT22;22247;48.586;13.492;2023-06-14T05:23:01;14.00;99.90
36212;DHT22;22247;48.586;13.492;2023-06-14T05:32:09;14.10;99.90
36212;DHT22;22247;48.586;13.492;2023-06-14T05:39:47;13.80;99.90
36212;DHT22;22247;48.586;13.492;2023-06-14T05:42:11;14.00;99.90
36212;DHT22;22247;48.586;13.492;2023-06-14T05:45:06;14.10;99.90
36212;DHT22;22247;48.586;13.492;2023-06-14T05:48:01;14.60;99.90
36212;DHT22;22247;48.586;13.492;2023-06-14T05:50:28;16.20;99.90
36212;DHT22;22247;48.586;13.492;2023-06-14T05:52:53;14.60;99.90
36212;DHT22;22247;48.586;13.492;2023-06-14T05:55:20;14.50;99.90
36212;DHT22;22247;48.586;13.492;2023-06-14T05:57:46;14.90;99.90
36212;DHT22;22247;48.586;13.492;2023-06-14T06:00:14;15.00;99.90
36212;DHT22;22247;48.586;13.492;2023-06-14T06:02:46;15.00;99.90
36212;DHT22;22247;48.586;13.492;2023-06-14T06:05:14;15.20;99.90
36212;DHT22;22247;48.586;13.492;2023-06-14T06:07:42;15.50;99.90
36212;DHT22;22247;48.586;13.492;2023-06-14T06:10:10;15.80;99.90
36212;DHT22;22247;48.586;13.492;2023-06-14T06:12:35;15.90;99.90
36212;DHT22;22247;48.586;13.492;2023-06-14T06:15:00;16.10;99.90
36212;DHT22;22247;48.586;13.492;2023-06-14T06:17:26;16.30;99.90
36212;DHT22;22247;48.586;13.492;2023-06-14T06:19:50;16.40;99.90
36212;DHT22;22247;48.586;13.492;2023-06-14T06:22:15;16.60;99.90
36212;DHT22;22247;48.586;13.492;2023-06-14T06:24:40;16.80;99.90
36212;DHT22;22247;48.586;13.492;2023-06-14T06:27:04;17.00;99.90
36212;DHT22;22247;48.586;13.492;2023-06-14T06:29:32;17.00;99.90
36212;DHT22;22247;48.586;13.492;2023-06-14T06:31:59;17.20;99.90
36212;DHT22;22247;48.586;13.492;2023-06-14T06:34:26;17.40;99.90
36212;DHT22;22247;48.586;13.492;2023-06-14T06:36:51;17.50;99.90
36212;DHT22;22247;48.586;13.492;2023-06-14T06:39:15;17.60;99.00
36212;DHT22;22247;48.586;13.492;2023-06-14T06:41:40;17.80;99.90
36212;DHT22;22247;48.586;13.492;2023-06-14T06:44:08;18.20;99.90
36212;DHT22;22247;48.586;13.492;2023-06-14T06:46:39;18.00;98.00
36212;DHT22;22247;48.586;13.492;2023-06-14T06:49:05;18.20;99.80
36212;DHT22;22247;48.586;13.492;2023-06-14T06:51:32;18.30;98.10
36212;DHT22;22247;48.586;13.492;2023-06-14T06:53:57;18.40;99.20
36212;DHT22;22247;48.586;13.492;2023-06-14T06:56:22;18.50;99.70
36212;DHT22;22247;48.586;13.492;2023-06-14T06:58:49;18.70;97.70
36212;DHT22;22247;48.586;13.492;2023-06-14T07:01:14;18.70;96.10
36212;DHT22;22247;48.586;13.492;2023-06-14T07:03:38;18.80;98.20
36212;DHT22;22247;48.586;13.492;2023-06-14T07:06:06;19.00;98.20
36212;DHT22;22247;48.586;13.492;2023-06-14T07:08:31;19.00;98.60
36212;DHT22;22247;48.586;13.492;2023-06-14T07:10:58;19.00;95.70
36212;DHT22;22247;48.586;13.492;2023-06-14T07:13:23;19.10;97.50
36212;DHT22;22247;48.586;13.492;2023-06-14T07:15:47;19.40;95.40
36212;DHT22;22247;48.586;13.492;2023-06-14T07:18:12;19.40;94.30
36212;DHT22;22247;48.586;13.492;2023-06-14T07:20:37;19.40;97.20
36212;DHT22;22247;48.586;13.492;2023-06-14T07:23:08;19.50;95.00
36212;DHT22;22247;48.586;13.492;2023-06-14T07:25:32;19.50;97.20
36212;DHT22;22247;48.586;13.492;2023-06-14T07:27:57;19.60;93.90
36212;DHT22;22247;48.586;13.492;2023-06-14T07:30:22;19.50;93.70
36212;DHT22;22247;48.586;13.492;2023-06-14T07:32:50;19.60;95.90
36212;DHT22;22247;48.586;13.492;2023-06-14T07:35:17;19.70;94.00
36212;DHT22;22247;48.586;13.492;2023-06-14T07:37:44;19.90;94.10
36212;DHT22;22247;48.586;13.492;2023-06-14T07:40:10;19.90;93.40
36212;DHT22;22247;48.586;13.492;2023-06-14T07:42:35;19.90;92.40
36212;DHT22;22247;48.586;13.492;2023-06-14T07:45:05;20.00;93.00
36212;DHT22;22247;48.586;13.492;2023-06-14T07:47:30;20.10;92.50
36212;DHT22;22247;48.586;13.492;2023-06-14T07:49:55;20.20;92.70
36212;DHT22;22247;48.586;13.492;2023-06-14T07:52:20;20.30;91.80
36212;DHT22;22247;48.586;13.492;2023-06-14T07:54:46;20.20;91.80
36212;DHT22;22247;48.586;13.492;2023-06-14T07:57:11;20.30;91.10
36212;DHT22;22247;48.586;13.492;2023-06-14T07:59:36;20.30;91.50
36212;DHT22;22247;48.586;13.492;2023-06-14T08:02:00;20.40;91.00
36212;DHT22;22247;48.586;13.492;2023-06-14T08:04:25;20.50;92.40
36212;DHT22;22247;48.586;13.492;2023-06-14T08:06:52;20.70;90.10
36212;DHT22;22247;48.586;13.492;2023-06-14T08:09:17;20.60;90.90
36212;DHT22;22247;48.586;13.492;2023-06-14T08:11:41;20.70;91.20
36212;DHT22;22247;48.586;13.492;2023-06-14T08:14:06;20.80;90.50
36212;DHT22;22247;48.586;13.492;2023-06-14T08:16:31;20.70;89.80
36212;DHT22;22247;48.586;13.492;2023-06-14T08:18:56;20.80;87.00
36212;DHT22;22247;48.586;13.492;2023-06-14T08:21:20;20.70;87.30
36212;DHT22;22247;48.586;13.492;2023-06-14T08:23:45;20.90;90.00
36212;DHT22;22247;48.586;13.492;2023-06-14T08:26:10;20.90;86.60
36212;DHT22;22247;48.586;13.492;2023-06-14T08:28:37;20.90;86.30
36212;DHT22;22247;48.586;13.492;2023-06-14T08:31:01;21.00;88.50
36212;DHT22;22247;48.586;13.492;2023-06-14T08:33:28;21.20;88.40
36212;DHT22;22247;48.586;13.492;2023-06-14T08:35:53;21.20;83.90
36212;DHT22;22247;48.586;13.492;2023-06-14T08:38:18;21.50;88.40
36212;DHT22;22247;48.586;13.492;2023-06-14T08:40:42;21.50;85.90
36212;DHT22;22247;48.586;13.492;2023-06-14T08:43:07;21.50;85.50
36212;DHT22;22247;48.586;13.492;2023-06-14T08:45:32;21.50;86.50
36212;DHT22;22247;48.586;13.492;2023-06-14T08:47:57;21.60;87.90
36212;DHT22;22247;48.586;13.492;2023-06-14T08:50:24;21.70;83.00
36212;DHT22;22247;48.586;13.492;2023-06-14T08:52:55;21.50;83.50
36212;DHT22;22247;48.586;13.492;2023-06-14T08:55:24;21.70;85.10
36212;DHT22;22247;48.586;13.492;2023-06-14T08:57:54;21.90;83.70
36212;DHT22;22247;48.586;13.492;2023-06-14T09:00:19;21.90;82.60
36212;DHT22;22247;48.586;13.492;2023-06-14T09:02:47;22.00;83.20
36212;DHT22;22247;48.586;13.492;2023-06-14T09:05:13;22.10;89.30
36212;DHT22;22247;48.586;13.492;2023-06-14T09:07:38;22.10;87.50
36212;DHT22;22247;48.586;13.492;2023-06-14T09:10:21;22.10;84.70
36212;DHT22;22247;48.586;13.492;2023-06-14T09:12:46;22.20;83.30
36212;DHT22;22247;48.586;13.492;2023-06-14T09:15:13;22.20;81.80
36212;DHT22;22247;48.586;13.492;2023-06-14T09:17:39;22.30;81.80
36212;DHT22;22247;48.586;13.492;2023-06-14T09:20:05;22.40;83.10
36212;DHT22;22247;48.586;13.492;2023-06-14T09:22:30;22.20;86.10
36212;DHT22;22247;48.586;13.492;2023-06-14T09:24:55;22.10;84.50
36212;DHT22;22247;48.586;13.492;2023-06-14T09:27:22;22.00;78.70
36212;DHT22;22247;48.586;13.492;2023-06-14T09:29:46;22.00;79.40
36212;DHT22;22247;48.586;13.492;2023-06-14T09:32:11;22.20;79.50
36212;DHT22;22247;48.586;13.492;2023-06-14T09:34:36;22.30;83.60
36212;DHT22;22247;48.586;13.492;2023-06-14T09:37:01;22.10;81.60
36212;DHT22;22247;48.586;13.492;2023-06-14T09:39:29;22.60;79.80
36212;DHT22;22247;48.586;13.492;2023-06-14T09:41:53;22.40;81.30
36212;DHT22;22247;48.586;13.492;2023-06-14T09:44:18;22.80;83.10
36212;DHT22;22247;48.586;13.492;2023-06-14T09:46:44;22.60;76.60
36212;DHT22;22247;48.586;13.492;2023-06-14T09:49:09;22.60;81.60
36212;DHT22;22247;48.586;13.492;2023-06-14T09:51:35;22.80;78.30
36212;DHT22;22247;48.586;13.492;2023-06-14T09:54:02;23.00;78.40
36212;DHT22;22247;48.586;13.492;2023-06-14T09:56:45;23.30;80.40
36212;DHT22;22247;48.586;13.492;2023-06-14T09:59:12;22.70;75.10
36212;DHT22;22247;48.586;13.492;2023-06-14T10:01:42;22.10;78.80
36212;DHT22;22247;48.586;13.492;2023-06-14T10:04:07;21.80;81.10
36212;DHT22;22247;48.586;13.492;2023-06-14T10:06:37;21.70;85.10
36212;DHT22;22247;48.586;13.492;2023-06-14T10:09:09;21.60;79.30
36212;DHT22;22247;48.586;13.492;2023-06-14T10:11:37;21.50;80.80
36212;DHT22;22247;48.586;13.492;2023-06-14T10:14:08;21.30;77.40
36212;DHT22;22247;48.586;13.492;2023-06-14T10:19:07;20.90;85.70
36212;DHT22;22247;48.586;13.492;2023-06-14T10:21:59;20.90;86.00
36212;DHT22;22247;48.586;13.492;2023-06-14T10:24:40;20.80;88.70
36212;DHT22;22247;48.586;13.492;2023-06-14T10:27:07;20.70;90.50
36212;DHT22;22247;48.586;13.492;2023-06-14T10:32:26;20.70;89.60
36212;DHT22;22247;48.586;13.492;2023-06-14T10:34:57;20.60;91.20
36212;DHT22;22247;48.586;13.492;2023-06-14T10:37:22;20.60;91.80
36212;DHT22;22247;48.586;13.492;2023-06-14T10:39:46;20.60;92.70
36212;DHT22;22247;48.586;13.492;2023-06-14T10:42:12;20.70;93.50
36212;DHT22;22247;48.586;13.492;2023-06-14T10:49:51;21.20;83.20
36212;DHT22;22247;48.586;13.492;2023-06-14T10:52:20;21.50;84.00
36212;DHT22;22247;48.586;13.492;2023-06-14T10:55:11;22.20;79.90
36212;DHT22;22247;48.586;13.492;2023-06-14T11:00:06;22.90;74.30
36212;DHT22;22247;48.586;13.492;2023-06-14T11:05:27;23.80;75.60
36212;DHT22;22247;48.586;13.492;2023-06-14T11:10:43;24.00;70.00
36212;DHT22;22247;48.586;13.492;2023-06-14T11:13:08;24.00;71.60
36212;DHT22;22247;48.586;13.492;2023-06-14T11:15:37;23.90;67.80
36212;DHT22;22247;48.586;13.492;2023-06-14T11:18:09;23.50;70.40
36212;DHT22;22247;48.586;13.492;2023-06-14T11:20:35;23.20;74.40
36212;DHT22;22247;48.586;13.492;2023-06-14T11:23:00;22.80;78.90
36212;DHT22;22247;48.586;13.492;2023-06-14T11:25:25;22.60;83.10
36212;DHT22;22247;48.586;13.492;2023-06-14T11:27:52;22.30;77.30
36212;DHT22;22247;48.586;13.492;2023-06-14T11:30:17;22.00;82.10
36212;DHT22;22247;48.586;13.492;2023-06-14T11:32:45;21.80;77.00
36212;DHT22;22247;48.586;13.492;2023-06-14T11:35:10;21.60;76.70
36212;DHT22;22247;48.586;13.492;2023-06-14T11:37:36;21.30;78.10
36212;DHT22;22247;48.586;13.492;2023-06-14T11:40:06;21.10;78.40
36212;DHT22;22247;48.586;13.492;2023-06-14T11:42:34;21.00;82.30
36212;DHT22;22247;48.586;13.492;2023-06-14T11:44:59;20.90;82.60
36212;DHT22;22247;48.586;13.492;2023-06-14T11:47:34;20.80;83.10
36212;DHT22;22247;48.586;13.492;2023-06-14T11:50:01;21.10;85.10
36212;DHT22;22247;48.586;13.492;2023-06-14T11:52:26;20.60;84.70
36212;DHT22;22247;48.586;13.492;2023-06-14T11:54:51;20.60;82.40
36212;DHT22;22247;48.586;13.492;2023-06-14T11:57:18;20.60;80.70
36212;DHT22;22247;48.586;13.492;2023-06-14T11:59:46;20.50;86.50
36212;DHT22;22247;48.586;13.492;2023-06-14T12:02:18;20.50;82.80
36212;DHT22;22247;48.586;13.492;2023-06-14T12:04:43;20.50;84.30
36212;DHT22;22247;48.586;13.492;2023-06-14T12:07:12;20.60;81.00
36212;DHT22;22247;48.586;13.492;2023-06-14T12:09:39;20.70;83.40
36212;DHT22;22247;48.586;13.492;2023-06-14T12:12:04;20.80;83.20
36212;DHT22;22247;48.586;13.492;2023-06-14T12:14:30;20.90;82.90
36212;DHT22;22247;48.586;13.492;2023-06-14T12:17:07;21.10;81.90
36212;DHT22;22247;48.586;13.492;2023-06-14T12:19:32;21.20;83.10
36212;DHT22;22247;48.586;13.492;2023-06-14T12:21:59;21.40;83.60
36212;DHT22;22247;48.586;13.492;2023-06-14T12:24:28;21.60;78.90
36212;DHT22;22247;48.586;13.492;2023-06-14T12:26:58;21.80;82.90
36212;DHT22;22247;48.586;13.492;2023-06-14T12:29:27;22.10;83.20
36212;DHT22;22247;48.586;13.492;2023-06-14T12:31:52;22.70;81.30
36212;DHT22;22247;48.586;13.492;2023-06-14T12:34:18;23.30;78.30
36212;DHT22;22247;48.586;13.492;2023-06-14T12:36:43;24.00;80.40
36212;DHT22;22247;48.586;13.492;2023-06-14T12:39:12;24.20;73.80
36212;DHT22;22247;48.586;13.492;2023-06-14T12:41:37;24.40;73.90
36212;DHT22;22247;48.586;13.492;2023-06-14T12:44:05;24.80;74.50
36212;DHT22;22247;48.586;13.492;2023-06-14T12:46:31;25.10;78.20
36212;DHT22;22247;48.586;13.492;2023-06-14T12:48:56;25.50;77.00
36212;DHT22;22247;48.586;13.492;2023-06-14T12:51:21;25.80;71.70
36212;DHT22;22247;48.586;13.492;2023-06-14T12:53:46;25.90;72.90
36212;DHT22;22247;48.586;13.492;2023-06-14T12:56:11;25.90;72.50
36212;DHT22;22247;48.586;13.492;2023-06-14T12:58:38;25.90;71.90
36212;DHT22;22247;48.586;13.492;2023-06-14T13:01:03;25.50;70.80
36212;DHT22;22247;48.586;13.492;2023-06-14T13:03:27;25.40;70.40
36212;DHT22;22247;48.586;13.492;2023-06-14T13:05:52;25.40;67.00
36212;DHT22;22247;48.586;13.492;2023-06-14T13:08:16;25.00;68.40
36212;DHT22;22247;48.586;13.492;2023-06-14T13:10:41;25.20;70.20
36212;DHT22;22247;48.586;13.492;2023-06-14T13:13:05;25.50;70.00
36212;DHT22;22247;48.586;13.492;2023-06-14T13:15:32;25.50;69.40
36212;DHT22;22247;48.586;13.492;2023-06-14T13:17:57;25.20;66.10
36212;DHT22;22247;48.586;13.492;2023-06-14T13:20:21;25.00;67.50
36212;DHT22;22247;48.586;13.492;2023-06-14T13:22:49;25.20;64.80
36212;DHT22;22247;48.586;13.492;2023-06-14T13:25:14;25.40;71.40
36212;DHT22;22247;48.586;13.492;2023-06-14T13:27:38;25.70;70.70
36212;DHT22;22247;48.586;13.492;2023-06-14T13:30:04;25.70;69.60
36212;DHT22;22247;48.586;13.492;2023-06-14T13:32:31;25.90;71.00
36212;DHT22;22247;48.586;13.492;2023-06-14T13:34:58;26.20;66.20
36212;DHT22;22247;48.586;13.492;2023-06-14T13:37:23;26.10;65.10
36212;DHT22;22247;48.586;13.492;2023-06-14T13:39:48;26.40;67.50
36212;DHT22;22247;48.586;13.492;2023-06-14T13:42:13;26.70;65.20
36212;DHT22;22247;48.586;13.492;2023-06-14T13:44:37;28.90;64.00
36212;DHT22;22247;48.586;13.492;2023-06-14T13:47:02;26.70;64.00
36212;DHT22;22247;48.586;13.492;2023-06-14T13:49:27;26.30;62.10
36212;DHT22;22247;48.586;13.492;2023-06-14T13:51:51;25.90;64.90
36212;DHT22;22247;48.586;13.492;2023-06-14T13:54:19;26.10;63.70
36212;DHT22;22247;48.586;13.492;2023-06-14T13:56:44;26.20;62.20
36212;DHT22;22247;48.586;13.492;2023-06-14T13:59:11;26.00;63.90
36212;DHT22;22247;48.586;13.492;2023-06-14T14:01:39;25.80;67.80
36212;DHT22;22247;48.586;13.492;2023-06-14T14:04:04;25.90;68.50
36212;DHT22;22247;48.586;13.492;2023-06-14T14:06:31;26.00;65.80
36212;DHT22;22247;48.586;13.492;2023-06-14T14:08:56;26.00;64.20
36212;DHT22;22247;48.586;13.492;2023-06-14T14:11:21;25.50;65.40
36212;DHT22;22247;48.586;13.492;2023-06-14T14:13:46;24.50;64.60
36212;DHT22;22247;48.586;13.492;2023-06-14T14:16:14;23.90;67.10
36212;DHT22;22247;48.586;13.492;2023-06-14T14:18:39;23.50;69.30
36212;DHT22;22247;48.586;13.492;2023-06-14T14:21:03;23.30;67.50
36212;DHT22;22247;48.586;13.492;2023-06-14T14:23:28;23.10;68.40
36212;DHT22;22247;48.586;13.492;2023-06-14T14:25:55;23.20;67.60
36212;DHT22;22247;48.586;13.492;2023-06-14T14:28:46;23.00;67.30
36212;DHT22;22247;48.586;13.492;2023-06-14T14:31:13;23.10;71.50
36212;DHT22;22247;48.586;13.492;2023-06-14T14:33:38;24.40;71.20
36212;DHT22;22247;48.586;13.492;2023-06-14T14:36:03;22.90;72.20
36212;DHT22;22247;48.586;13.492;2023-06-14T14:38:29;23.10;67.10
36212;DHT22;22247;48.586;13.492;2023-06-14T14:40:53;23.20;66.80
36212;DHT22;22247;48.586;13.492;2023-06-14T14:43:24;23.20;71.70
36212;DHT22;22247;48.586;13.492;2023-06-14T14:45:49;22.90;77.90
36212;DHT22;22247;48.586;13.492;2023-06-14T14:48:16;22.90;78.00
36212;DHT22;22247;48.586;13.492;2023-06-14T14:50:40;23.10;72.00
36212;DHT22;22247;48.586;13.492;2023-06-14T14:53:06;23.80;70.40
36212;DHT22;22247;48.586;13.492;2023-06-14T14:55:31;25.00;68.40
36212;DHT22;22247;48.586;13.492;2023-06-14T14:57:59;25.00;65.20
36212;DHT22;22247;48.586;13.492;2023-06-14T15:00:23;24.10;63.80
36212;DHT22;22247;48.586;13.492;2023-06-14T15:02:50;25.60;65.30
36212;DHT22;22247;48.586;13.492;2023-06-14T15:05:15;26.00;63.00
36212;DHT22;22247;48.586;13.492;2023-06-14T15:07:40;26.30;63.80
36212;DHT22;22247;48.586;13.492;2023-06-14T15:10:06;27.00;63.50
36212;DHT22;22247;48.586;13.492;2023-06-14T15:12:31;26.90;63.20
36212;DHT22;22247;48.586;13.492;2023-06-14T15:15:06;26.80;63.00
36212;DHT22;22247;48.586;13.492;2023-06-14T15:17:34;27.40;64.00
36212;DHT22;22247;48.586;13.492;2023-06-14T15:19:59;27.90;63.60
36212;DHT22;22247;48.586;13.492;2023-06-14T15:22:26;26.80;60.10
36212;DHT22;22247;48.586;13.492;2023-06-14T15:25:07;26.00;62.60
36212;DHT22;22247;48.586;13.492;2023-06-14T15:27:52;25.80;68.00
36212;DHT22;22247;48.586;13.492;2023-06-14T15:30:17;25.70;65.50
36212;DHT22;22247;48.586;13.492;2023-06-14T15:32:44;25.70;67.40
36212;DHT22;22247;48.586;13.492;2023-06-14T15:35:09;25.20;72.10
36212;DHT22;22247;48.586;13.492;2023-06-14T15:37:34;25.10;73.30
36212;DHT22;22247;48.586;13.492;2023-06-14T15:39:58;25.00;73.20
36212;DHT22;22247;48.586;13.492;2023-06-14T15:42:23;25.60;70.60
36212;DHT22;22247;48.586;13.492;2023-06-14T15:44:47;26.80;64.20
36212;DHT22;22247;48.586;13.492;2023-06-14T15:47:12;28.40;64.20
36212;DHT22;22247;48.586;13.492;2023-06-14T15:49:39;29.00;66.90
36212;DHT22;22247;48.586;13.492;2023-06-14T15:52:04;28.90;61.20
36212;DHT22;22247;48.586;13.492;2023-06-14T15:54:30;29.00;63.20
36212;DHT22;22247;48.586;13.492;2023-06-14T15:56:54;29.20;62.30
36212;DHT22;22247;48.586;13.492;2023-06-14T15:59:19;29.30;60.50
36212;DHT22;22247;48.586;13.492;2023-06-14T16:01:53;29.20;64.90
36212;DHT22;22247;48.586;13.492;2023-06-14T16:04:17;29.60;63.50
36212;DHT22;22247;48.586;13.492;2023-06-14T16:06:42;29.50;61.20
36212;DHT22;22247;48.586;13.492;2023-06-14T16:09:07;28.30;61.80
36212;DHT22;22247;48.586;13.492;2023-06-14T16:11:32;28.10;62.60
36212;DHT22;22247;48.586;13.492;2023-06-14T16:13:59;28.00;60.40
36212;DHT22;22247;48.586;13.492;2023-06-14T16:16:34;27.20;60.80
36212;DHT22;22247;48.586;13.492;2023-06-14T16:18:59;26.90;61.20
36212;DHT22;22247;48.586;13.492;2023-06-14T16:21:27;26.00;62.40
36212;DHT22;22247;48.586;13.492;2023-06-14T16:23:51;24.20;64.90
36212;DHT22;22247;48.586;13.492;2023-06-14T16:26:16;24.40;66.40
36212;DHT22;22247;48.586;13.492;2023-06-14T16:28:41;23.80;68.10
36212;DHT22;22247;48.586;13.492;2023-06-14T16:31:09;23.20;67.50
36212;DHT22;22247;48.586;13.492;2023-06-14T16:33:34;23.00;68.30
36212;DHT22;22247;48.586;13.492;2023-06-14T16:35:59;22.80;69.60
36212;DHT22;22247;48.586;13.492;2023-06-14T16:38:23;22.70;71.20
36212;DHT22;22247;48.586;13.492;2023-06-14T16:40:48;22.60;71.50
36212;DHT22;22247;48.586;13.492;2023-06-14T16:43:13;22.40;70.00
36212;DHT22;22247;48.586;13.492;2023-06-14T16:45:37;22.30;72.30
36212;DHT22;22247;48.586;13.492;2023-06-14T16:48:03;22.20;71.30
36212;DHT22;22247;48.586;13.492;2023-06-14T16:53:10;21.80;73.30
36212;DHT22;22247;48.586;13.492;2023-06-14T16:55:36;21.70;71.50
36212;DHT22;22247;48.586;13.492;2023-06-14T16:58:05;21.70;73.30
36212;DHT22;22247;48.586;13.492;2023-06-14T17:00:35;21.60;75.10
36212;DHT22;22247;48.586;13.492;2023-06-14T17:03:31;21.40;72.70
36212;DHT22;22247;48.586;13.492;2023-06-14T17:08:58;21.30;77.40
36212;DHT22;22247;48.586;13.492;2023-06-14T17:11:23;21.30;81.10
36212;DHT22;22247;48.586;13.492;2023-06-14T17:14:07;21.30;82.00
36212;DHT22;22247;48.586;13.492;2023-06-14T17:16:39;21.20;80.60
36212;DHT22;22247;48.586;13.492;2023-06-14T17:19:06;21.10;76.50
36212;DHT22;22247;48.586;13.492;2023-06-14T17:21:38;20.90;83.20
36212;DHT22;22247;48.586;13.492;2023-06-14T17:24:03;20.80;76.40
36212;DHT22;22247;48.586;13.492;2023-06-14T17:26:28;20.70;82.30
36212;DHT22;22247;48.586;13.492;2023-06-14T17:28:54;20.90;87.60
36212;DHT22;22247;48.586;13.492;2023-06-14T17:31:27;21.30;86.90
36212;DHT22;22247;48.586;13.492;2023-06-14T17:33:52;21.50;84.60
36212;DHT22;22247;48.586;13.492;2023-06-14T17:38:41;21.30;80.00
36212;DHT22;22247;48.586;13.492;2023-06-14T17:41:06;21.20;84.30
36212;DHT22;22247;48.586;13.492;2023-06-14T17:43:33;20.90;84.00
36212;DHT22;22247;48.586;13.492;2023-06-14T17:45:59;20.70;78.90
36212;DHT22;22247;48.586;13.492;2023-06-14T17:48:23;20.60;83.60
36212;DHT22;22247;48.586;13.492;2023-06-14T17:50:48;20.50;79.50
36212;DHT22;22247;48.586;13.492;2023-06-14T17:53:16;20.50;83.10
36212;DHT22;22247;48.586;13.492;2023-06-14T17:55:40;20.40;85.00
36212;DHT22;22247;48.586;13.492;2023-06-14T17:58:05;20.70;90.10
36212;DHT22;22247;48.586;13.492;2023-06-14T18:00:29;20.30;89.00
36212;DHT22;22247;48.586;13.492;2023-06-14T18:02:54;20.30;85.20
36212;DHT22;22247;48.586;13.492;2023-06-14T18:05:24;20.10;85.90
36212;DHT22;22247;48.586;13.492;2023-06-14T18:07:54;20.10;87.80
36212;DHT22;22247;48.586;13.492;2023-06-14T18:10:18;19.90;85.10
36212;DHT22;22247;48.586;13.492;2023-06-14T18:12:43;19.80;83.70
36212;DHT22;22247;48.586;13.492;2023-06-14T18:15:10;19.80;88.50
36212;DHT22;22247;48.586;13.492;2023-06-14T18:17:35;19.70;88.30
36212;DHT22;22247;48.586;13.492;2023-06-14T18:20:00;19.60;86.70
36212;DHT22;22247;48.586;13.492;2023-06-14T18:22:26;19.50;89.30
36212;DHT22;22247;48.586;13.492;2023-06-14T18:24:50;19.40;88.20
36212;DHT22;22247;48.586;13.492;2023-06-14T18:27:15;19.30;90.20
36212;DHT22;22247;48.586;13.492;2023-06-14T18:29:40;19.30;92.20
36212;DHT22;22247;48.586;13.492;2023-06-14T18:32:07;19.10;91.80
36212;DHT22;22247;48.586;13.492;2023-06-14T18:34:31;19.00;92.50
36212;DHT22;22247;48.586;13.492;2023-06-14T18:36:56;18.90;91.30
36212;DHT22;22247;48.586;13.492;2023-06-14T18:39:24;18.80;93.70
36212;DHT22;22247;48.586;13.492;2023-06-14T18:41:48;18.70;93.70
36212;DHT22;22247;48.586;13.492;2023-06-14T18:44:13;18.70;92.30
36212;DHT22;22247;48.586;13.492;2023-06-14T18:46:38;18.50;93.90
36212;DHT22;22247;48.586;13.492;2023-06-14T18:49:02;18.50;95.20
36212;DHT22;22247;48.586;13.492;2023-06-14T18:51:27;18.40;95.60
36212;DHT22;22247;48.586;13.492;2023-06-14T18:53:51;18.40;96.60
36212;DHT22;22247;48.586;13.492;2023-06-14T18:56:16;18.30;97.60
36212;DHT22;22247;48.586;13.492;2023-06-14T18:58:40;18.30;97.10
36212;DHT22;22247;48.586;13.492;2023-06-14T19:01:07;18.30;95.50
36212;DHT22;22247;48.586;13.492;2023-06-14T19:03:32;18.30;97.70
36212;DHT22;22247;48.586;13.492;2023-06-14T19:05:57;18.20;99.20
36212;DHT22;22247;48.586;13.492;2023-06-14T19:08:24;18.20;98.10
36212;DHT22;22247;48.586;13.492;2023-06-14T19:10:49;18.10;99.20
36212;DHT22;22247;48.586;13.492;2023-06-14T19:13:13;18.00;99.90
36212;DHT22;22247;48.586;13.492;2023-06-14T19:15:38;17.90;99.90
36212;DHT22;22247;48.586;13.492;2023-06-14T19:18:05;17.90;99.90
36212;DHT22;22247;48.586;13.492;2023-06-14T19:20:32;17.90;99.90
36212;DHT22;22247;48.586;13.492;2023-06-14T19:22:58;17.80;99.90
36212;DHT22;22247;48.586;13.492;2023-06-14T19:25:24;17.70;99.90
36212;DHT22;22247;48.586;13.492;2023-06-14T19:27:49;17.60;99.90
36212;DHT22;22247;48.586;13.492;2023-06-14T19:30:14;17.60;99.90
36212;DHT22;22247;48.586;13.492;2023-06-14T19:32:39;17.50;99.90
36212;DHT22;22247;48.586;13.492;2023-06-14T19:35:05;17.50;99.90
36212;DHT22;22247;48.586;13.492;2023-06-14T19:37:29;17.40;99.90
36212;DHT22;22247;48.586;13.492;2023-06-14T19:39:55;17.50;99.90
36212;DHT22;22247;48.586;13.492;2023-06-14T19:42:20;17.40;99.90
36212;DHT22;22247;48.586;13.492;2023-06-14T19:44:45;17.30;99.90
36212;DHT22;22247;48.586;13.492;2023-06-14T19:47:10;17.30;99.90
36212;DHT22;22247;48.586;13.492;2023-06-14T19:49:35;17.20;99.90
36212;DHT22;22247;48.586;13.492;2023-06-14T19:52:00;17.10;99.90
36212;DHT22;22247;48.586;13.492;2023-06-14T19:54:24;17.10;99.90
36212;DHT22;22247;48.586;13.492;2023-06-14T19:56:49;17.10;99.90
36212;DHT22;22247;48.586;13.492;2023-06-14T19:59:14;17.00;99.90
36212;DHT22;22247;48.586;13.492;2023-06-14T20:01:38;17.20;99.90
36212;DHT22;22247;48.586;13.492;2023-06-14T20:04:03;16.90;99.90
36212;DHT22;22247;48.586;13.492;2023-06-14T20:06:28;17.00;99.90
36212;DHT22;22247;48.586;13.492;2023-06-14T20:08:53;16.90;99.90
36212;DHT22;22247;48.586;13.492;2023-06-14T22:26:22;15.80;99.90
